sensor_id;sensor_type;location;lat;lon;timestamp;pressure;altitude;pressure_sealevel;temperature;humidity
68793;BME280;55778;54.346;10.210;2023-05-02T00:00:35;101004.00;;;9.85;100.00
68793;BME280;55778;54.346;10.210;2023-05-02T00:03:01;100999.78;;;9.81;100.00
68793;BME280;55778;54.346;10.210;2023-05-02T00:05:28;100998.97;;;9.80;100.00
68793;BME280;55778;54.346;10.210;2023-05-02T00:07:53;101007.25;;;9.79;100.00
68793;BME280;55778;54.346;10.210;2023-05-02T00:10:19;101006.38;;;9.78;100.00
68793;BME280;55778;54.346;10.210;2023-05-02T00:12:44;100999.94;;;9.79;100.00
68793;BME280;55778;54.346;10.210;2023-05-02T00:15:10;101011.22;;;9.75;100.00
68793;BME280;55778;54.346;10.210;2023-05-02T00:17:35;101007.25;;;9.79;100.00
68793;BME280;55778;54.346;10.210;2023-05-02T00:20:01;101006.84;;;9.83;100.00
68793;BME280;55778;54.346;10.210;2023-05-02T00:22:29;101010.66;;;9.71;100.00
68793;BME280;55778;54.346;10.210;2023-05-02T00:24:55;101002.91;;;9.76;100.00
68793;BME280;55778;54.346;10.210;2023-05-02T00:27:21;101015.41;;;9.79;100.00
68793;BME280;55778;54.346;10.210;2023-05-02T00:29:47;101013.88;;;9.86;100.00
68793;BME280;55778;54.346;10.210;2023-05-02T00:32:12;101014.41;;;9.80;100.00
68793;BME280;55778;54.346;10.210;2023-05-02T00:34:38;101022.78;;;9.67;100.00
68793;BME280;55778;54.346;10.210;2023-05-02T00:37:03;101029.22;;;9.66;100.00
68793;BME280;55778;54.346;10.210;2023-05-02T00:39:28;101017.03;;;9.61;100.00
68793;BME280;55778;54.346;10.210;2023-05-02T00:41:58;101025.44;;;9.58;100.00
68793;BME280;55778;54.346;10.210;2023-05-02T00:44:23;101030.69;;;9.50;100.00
68793;BME280;55778;54.346;10.210;2023-05-02T00:46:49;101026.56;;;9.55;100.00
68793;BME280;55778;54.346;10.210;2023-05-02T00:49:15;101025.59;;;9.56;100.00
68793;BME280;55778;54.346;10.210;2023-05-02T00:51:40;101033.88;;;9.55;100.00
68793;BME280;55778;54.346;10.210;2023-05-02T00:54:05;101027.56;;;9.54;100.00
68793;BME280;55778;54.346;10.210;2023-05-02T00:56:31;101032.56;;;9.49;100.00
68793;BME280;55778;54.346;10.210;2023-05-02T00:58:56;101033.66;;;9.47;100.00
68793;BME280;55778;54.346;10.210;2023-05-02T01:01:35;101037.66;;;9.43;100.00
68793;BME280;55778;54.346;10.210;2023-05-02T01:12:03;101044.75;;;9.55;100.00
68793;BME280;55778;54.346;10.210;2023-05-02T01:14:34;101043.44;;;9.49;100.00
68793;BME280;55778;54.346;10.210;2023-05-02T01:17:04;101041.38;;;9.42;100.00
68793;BME280;55778;54.346;10.210;2023-05-02T01:19:35;101048.00;;;9.28;100.00
68793;BME280;55778;54.346;10.210;2023-05-02T01:22:02;101050.28;;;9.12;100.00
68793;BME280;55778;54.346;10.210;2023-05-02T01:24:33;101049.56;;;8.99;100.00
68793;BME280;55778;54.346;10.210;2023-05-02T01:27:14;101056.47;;;8.61;100.00
68793;BME280;55778;54.346;10.210;2023-05-02T01:29:43;101068.22;;;8.28;100.00
68793;BME280;55778;54.346;10.210;2023-05-02T01:32:11;101072.66;;;8.18;100.00
68793;BME280;55778;54.346;10.210;2023-05-02T01:34:40;101080.28;;;8.02;100.00
68793;BME280;55778;54.346;10.210;2023-05-02T01:37:10;101083.38;;;7.97;100.00
68793;BME280;55778;54.346;10.210;2023-05-02T01:39:37;101089.00;;;7.83;100.00
68793;BME280;55778;54.346;10.210;2023-05-02T01:42:04;101097.78;;;7.87;100.00
68793;BME280;55778;54.346;10.210;2023-05-02T01:44:31;101105.75;;;7.77;100.00
68793;BME280;55778;54.346;10.210;2023-05-02T01:46:59;101116.06;;;7.50;100.00
68793;BME280;55778;54.346;10.210;2023-05-02T01:49:25;101116.47;;;7.33;100.00
68793;BME280;55778;54.346;10.210;2023-05-02T01:51:51;101114.22;;;7.27;100.00
68793;BME280;55778;54.346;10.210;2023-05-02T01:54:19;101110.25;;;7.20;100.00
68793;BME280;55778;54.346;10.210;2023-05-02T01:56:46;101116.03;;;7.16;100.00
68793;BME280;55778;54.346;10.210;2023-05-02T01:59:17;101128.31;;;7.09;100.00
68793;BME280;55778;54.346;10.210;2023-05-02T02:01:44;101138.63;;;7.04;100.00
68793;BME280;55778;54.346;10.210;2023-05-02T02:04:11;101137.16;;;6.87;100.00
68793;BME280;55778;54.346;10.210;2023-05-02T02:06:38;101146.81;;;6.79;100.00
68793;BME280;55778;54.346;10.210;2023-05-02T02:09:04;101158.00;;;6.62;100.00
68793;BME280;55778;54.346;10.210;2023-05-02T02:11:42;101157.81;;;6.40;97.31
68793;BME280;55778;54.346;10.210;2023-05-02T02:14:17;101174.81;;;6.29;96.45
68793;BME280;55778;54.346;10.210;2023-05-02T02:16:43;101173.13;;;6.16;94.59
68793;BME280;55778;54.346;10.210;2023-05-02T02:19:11;101182.94;;;6.04;95.30
68793;BME280;55778;54.346;10.210;2023-05-02T02:21:39;101185.34;;;5.96;94.78
68793;BME280;55778;54.346;10.210;2023-05-02T02:24:05;101187.47;;;5.91;94.51
68793;BME280;55778;54.346;10.210;2023-05-02T02:26:32;101209.22;;;5.89;94.17
68793;BME280;55778;54.346;10.210;2023-05-02T02:28:59;101202.41;;;5.84;94.36
68793;BME280;55778;54.346;10.210;2023-05-02T02:31:30;101204.22;;;5.83;93.99
68793;BME280;55778;54.346;10.210;2023-05-02T02:33:55;101199.88;;;5.81;94.50
68793;BME280;55778;54.346;10.210;2023-05-02T02:36:27;101207.22;;;5.79;94.39
68793;BME280;55778;54.346;10.210;2023-05-02T02:39:17;101208.19;;;5.78;93.98
68793;BME280;55778;54.346;10.210;2023-05-02T02:41:58;101213.91;;;5.73;92.61
68793;BME280;55778;54.346;10.210;2023-05-02T02:47:23;101228.00;;;5.78;93.78
68793;BME280;55778;54.346;10.210;2023-05-02T02:50:15;101221.66;;;5.65;91.63
68793;BME280;55778;54.346;10.210;2023-05-02T02:52:54;101228.56;;;5.57;90.41
68793;BME280;55778;54.346;10.210;2023-05-02T02:57:58;101242.78;;;5.46;90.01
68793;BME280;55778;54.346;10.210;2023-05-02T03:00:26;101237.59;;;5.43;89.34
68793;BME280;55778;54.346;10.210;2023-05-02T03:02:52;101237.50;;;5.45;89.93
68793;BME280;55778;54.346;10.210;2023-05-02T03:05:20;101244.84;;;5.43;89.10
68793;BME280;55778;54.346;10.210;2023-05-02T03:07:46;101255.88;;;5.40;89.49
68793;BME280;55778;54.346;10.210;2023-05-02T03:10:12;101259.63;;;5.37;89.82
68793;BME280;55778;54.346;10.210;2023-05-02T03:12:37;101265.41;;;5.31;89.58
68793;BME280;55778;54.346;10.210;2023-05-02T03:17:48;101270.56;;;5.22;90.41
68793;BME280;55778;54.346;10.210;2023-05-02T03:20:13;101277.66;;;5.10;90.39
68793;BME280;55778;54.346;10.210;2023-05-02T03:22:39;101283.44;;;5.04;90.67
68793;BME280;55778;54.346;10.210;2023-05-02T03:25:04;101281.13;;;4.98;90.33
68793;BME280;55778;54.346;10.210;2023-05-02T03:27:30;101292.13;;;4.95;90.50
68793;BME280;55778;54.346;10.210;2023-05-02T03:29:56;101301.28;;;4.93;89.84
68793;BME280;55778;54.346;10.210;2023-05-02T03:32:21;101296.16;;;4.88;89.91
68793;BME280;55778;54.346;10.210;2023-05-02T03:34:47;101307.53;;;4.79;90.65
68793;BME280;55778;54.346;10.210;2023-05-02T03:37:12;101303.00;;;4.80;90.19
68793;BME280;55778;54.346;10.210;2023-05-02T03:39:37;101300.81;;;4.86;88.70
68793;BME280;55778;54.346;10.210;2023-05-02T03:42:04;101317.38;;;4.80;88.44
68793;BME280;55778;54.346;10.210;2023-05-02T03:44:29;101309.38;;;4.79;88.17
68793;BME280;55778;54.346;10.210;2023-05-02T03:46:55;101314.78;;;4.79;87.91
68793;BME280;55778;54.346;10.210;2023-05-02T03:49:20;101312.56;;;4.71;88.04
68793;BME280;55778;54.346;10.210;2023-05-02T03:51:46;101319.22;;;4.80;87.62
68793;BME280;55778;54.346;10.210;2023-05-02T03:54:11;101314.88;;;4.77;87.68
68793;BME280;55778;54.346;10.210;2023-05-02T03:56:36;101319.50;;;4.75;87.60
68793;BME280;55778;54.346;10.210;2023-05-02T03:59:03;101326.06;;;4.71;87.59
68793;BME280;55778;54.346;10.210;2023-05-02T04:01:29;101336.75;;;4.73;87.94
68793;BME280;55778;54.346;10.210;2023-05-02T04:03:55;101337.13;;;4.81;87.50
68793;BME280;55778;54.346;10.210;2023-05-02T04:06:21;101336.56;;;4.76;88.07
68793;BME280;55778;54.346;10.210;2023-05-02T04:08:46;101344.88;;;4.73;88.69
68793;BME280;55778;54.346;10.210;2023-05-02T04:11:11;101339.19;;;4.77;88.46
68793;BME280;55778;54.346;10.210;2023-05-02T04:13:37;101336.28;;;4.80;88.49
68793;BME280;55778;54.346;10.210;2023-05-02T04:16:02;101340.34;;;4.87;87.45
68793;BME280;55778;54.346;10.210;2023-05-02T04:18:28;101339.84;;;4.95;86.83
68793;BME280;55778;54.346;10.210;2023-05-02T04:20:55;101341.59;;;4.96;86.94
68793;BME280;55778;54.346;10.210;2023-05-02T04:23:20;101345.38;;;5.07;85.41
68793;BME280;55778;54.346;10.210;2023-05-02T04:25:53;101349.41;;;5.14;85.76
68793;BME280;55778;54.346;10.210;2023-05-02T04:28:20;101349.31;;;5.16;85.49
68793;BME280;55778;54.346;10.210;2023-05-02T04:30:47;101368.13;;;5.17;84.74
68793;BME280;55778;54.346;10.210;2023-05-02T04:33:12;101359.53;;;5.25;83.99
68793;BME280;55778;54.346;10.210;2023-05-02T04:35:40;101364.84;;;5.26;84.98
68793;BME280;55778;54.346;10.210;2023-05-02T04:38:06;101361.47;;;5.23;84.01
68793;BME280;55778;54.346;10.210;2023-05-02T04:40:32;101371.69;;;5.32;83.97
68793;BME280;55778;54.346;10.210;2023-05-02T04:42:58;101372.66;;;5.31;83.74
68793;BME280;55778;54.346;10.210;2023-05-02T04:45:24;101369.66;;;5.35;83.97
68793;BME280;55778;54.346;10.210;2023-05-02T04:47:50;101382.59;;;5.44;83.83
68793;BME280;55778;54.346;10.210;2023-05-02T04:50:15;101381.63;;;5.45;83.89
68793;BME280;55778;54.346;10.210;2023-05-02T04:52:40;101381.63;;;5.45;83.02
68793;BME280;55778;54.346;10.210;2023-05-02T04:55:06;101391.34;;;5.48;83.18
68793;BME280;55778;54.346;10.210;2023-05-02T04:57:32;101396.19;;;5.43;83.28
68793;BME280;55778;54.346;10.210;2023-05-02T04:59:57;101393.84;;;5.51;82.78
68793;BME280;55778;54.346;10.210;2023-05-02T05:02:23;101407.97;;;5.56;83.07
68793;BME280;55778;54.346;10.210;2023-05-02T05:04:50;101419.72;;;5.55;83.33
68793;BME280;55778;54.346;10.210;2023-05-02T05:07:15;101415.78;;;5.60;82.70
68793;BME280;55778;54.346;10.210;2023-05-02T05:09:40;101418.00;;;5.54;81.95
68793;BME280;55778;54.346;10.210;2023-05-02T05:12:06;101422.72;;;5.50;82.22
68793;BME280;55778;54.346;10.210;2023-05-02T05:14:32;101435.72;;;5.58;82.73
68793;BME280;55778;54.346;10.210;2023-05-02T05:16:58;101431.00;;;5.61;82.00
68793;BME280;55778;54.346;10.210;2023-05-02T05:19:23;101430.63;;;5.67;81.64
68793;BME280;55778;54.346;10.210;2023-05-02T05:21:49;101428.91;;;5.66;79.33
68793;BME280;55778;54.346;10.210;2023-05-02T05:24:15;101430.03;;;5.62;79.03
68793;BME280;55778;54.346;10.210;2023-05-02T05:26:40;101434.59;;;5.62;78.58
68793;BME280;55778;54.346;10.210;2023-05-02T05:29:05;101441.63;;;5.64;78.41
68793;BME280;55778;54.346;10.210;2023-05-02T05:31:32;101436.97;;;5.80;78.08
68793;BME280;55778;54.346;10.210;2023-05-02T05:33:57;101442.22;;;5.69;77.67
68793;BME280;55778;54.346;10.210;2023-05-02T05:36:23;101452.84;;;5.72;78.54
68793;BME280;55778;54.346;10.210;2023-05-02T05:38:49;101451.75;;;5.75;78.33
68793;BME280;55778;54.346;10.210;2023-05-02T05:41:15;101460.75;;;5.75;78.65
68793;BME280;55778;54.346;10.210;2023-05-02T05:43:40;101456.59;;;5.70;76.89
68793;BME280;55778;54.346;10.210;2023-05-02T05:46:06;101462.09;;;5.68;75.86
68793;BME280;55778;54.346;10.210;2023-05-02T05:48:31;101449.25;;;5.72;76.10
68793;BME280;55778;54.346;10.210;2023-05-02T05:50:57;101455.25;;;5.77;75.74
68793;BME280;55778;54.346;10.210;2023-05-02T05:53:22;101458.06;;;5.75;74.64
68793;BME280;55778;54.346;10.210;2023-05-02T05:55:47;101464.22;;;5.77;75.00
68793;BME280;55778;54.346;10.210;2023-05-02T05:58:13;101477.63;;;5.79;75.42
68793;BME280;55778;54.346;10.210;2023-05-02T06:00:39;101467.44;;;5.84;74.48
68793;BME280;55778;54.346;10.210;2023-05-02T06:03:05;101478.06;;;5.87;74.42
68793;BME280;55778;54.346;10.210;2023-05-02T06:05:31;101472.56;;;5.88;75.25
68793;BME280;55778;54.346;10.210;2023-05-02T06:07:57;101487.00;;;5.87;75.33
68793;BME280;55778;54.346;10.210;2023-05-02T06:10:23;101494.09;;;5.90;74.74
68793;BME280;55778;54.346;10.210;2023-05-02T06:12:48;101485.69;;;5.94;74.14
68793;BME280;55778;54.346;10.210;2023-05-02T06:15:14;101495.13;;;6.01;73.96
68793;BME280;55778;54.346;10.210;2023-05-02T06:17:39;101495.13;;;6.01;73.79
68793;BME280;55778;54.346;10.210;2023-05-02T06:20:05;101492.63;;;5.98;73.21
68793;BME280;55778;54.346;10.210;2023-05-02T06:22:31;101501.31;;;6.03;72.23
68793;BME280;55778;54.346;10.210;2023-05-02T06:24:56;101500.63;;;6.14;72.48
68793;BME280;55778;54.346;10.210;2023-05-02T06:27:22;101511.81;;;6.22;72.38
68793;BME280;55778;54.346;10.210;2023-05-02T06:29:50;101511.50;;;6.27;72.83
68793;BME280;55778;54.346;10.210;2023-05-02T06:32:15;101525.63;;;6.32;72.60
68793;BME280;55778;54.346;10.210;2023-05-02T06:34:41;101513.72;;;6.34;72.01
68793;BME280;55778;54.346;10.210;2023-05-02T06:37:06;101519.03;;;6.36;71.59
68793;BME280;55778;54.346;10.210;2023-05-02T06:39:32;101528.13;;;6.88;70.46
68793;BME280;55778;54.346;10.210;2023-05-02T06:41:58;101526.72;;;6.95;69.92
68793;BME280;55778;54.346;10.210;2023-05-02T06:44:23;101526.97;;;7.04;69.56
68793;BME280;55778;54.346;10.210;2023-05-02T06:46:48;101533.16;;;6.80;69.42
68793;BME280;55778;54.346;10.210;2023-05-02T06:49:15;101543.47;;;6.75;69.35
68793;BME280;55778;54.346;10.210;2023-05-02T06:51:40;101546.72;;;7.19;68.57
68793;BME280;55778;54.346;10.210;2023-05-02T06:54:06;101558.63;;;7.04;68.64
68793;BME280;55778;54.346;10.210;2023-05-02T06:56:31;101555.34;;;6.99;67.83
68793;BME280;55778;54.346;10.210;2023-05-02T06:58:57;101560.31;;;6.92;66.26
68793;BME280;55778;54.346;10.210;2023-05-02T07:01:22;101566.44;;;6.82;66.36
68793;BME280;55778;54.346;10.210;2023-05-02T07:03:48;101562.94;;;6.94;65.90
68793;BME280;55778;54.346;10.210;2023-05-02T07:06:13;101569.00;;;6.71;65.93
68793;BME280;55778;54.346;10.210;2023-05-02T07:08:38;101575.88;;;6.76;66.92
68793;BME280;55778;54.346;10.210;2023-05-02T07:11:04;101574.94;;;6.90;67.14
68793;BME280;55778;54.346;10.210;2023-05-02T07:13:29;101583.06;;;6.90;66.60
68793;BME280;55778;54.346;10.210;2023-05-02T07:15:55;101576.91;;;6.74;66.65
68793;BME280;55778;54.346;10.210;2023-05-02T07:18:20;101588.94;;;6.70;67.55
68793;BME280;55778;54.346;10.210;2023-05-02T07:20:46;101581.59;;;7.11;66.93
68793;BME280;55778;54.346;10.210;2023-05-02T07:23:11;101585.25;;;7.24;64.72
68793;BME280;55778;54.346;10.210;2023-05-02T07:25:37;101588.97;;;7.48;63.65
68793;BME280;55778;54.346;10.210;2023-05-02T07:28:04;101590.06;;;8.20;61.82
68793;BME280;55778;54.346;10.210;2023-05-02T07:30:29;101580.63;;;8.39;60.99
68793;BME280;55778;54.346;10.210;2023-05-02T07:32:55;101590.81;;;8.10;61.38
68793;BME280;55778;54.346;10.210;2023-05-02T07:35:20;101605.28;;;8.36;61.19
68793;BME280;55778;54.346;10.210;2023-05-02T07:37:46;101598.94;;;8.60;60.57
68793;BME280;55778;54.346;10.210;2023-05-02T07:40:11;101603.38;;;8.61;61.05
68793;BME280;55778;54.346;10.210;2023-05-02T07:42:36;101611.88;;;8.93;60.23
68793;BME280;55778;54.346;10.210;2023-05-02T07:45:02;101614.81;;;8.90;59.82
68793;BME280;55778;54.346;10.210;2023-05-02T07:47:27;101619.47;;;8.64;59.95
68793;BME280;55778;54.346;10.210;2023-05-02T07:49:54;101616.25;;;8.09;59.79
68793;BME280;55778;54.346;10.210;2023-05-02T07:52:20;101611.88;;;7.56;60.07
68793;BME280;55778;54.346;10.210;2023-05-02T07:54:50;101615.13;;;7.49;61.25
68793;BME280;55778;54.346;10.210;2023-05-02T07:57:15;101619.81;;;7.72;62.62
68793;BME280;55778;54.346;10.210;2023-05-02T07:59:44;101619.94;;;8.33;62.50
68793;BME280;55778;54.346;10.210;2023-05-02T08:02:09;101617.56;;;8.41;60.39
68793;BME280;55778;54.346;10.210;2023-05-02T08:04:37;101623.88;;;8.29;60.89
68793;BME280;55778;54.346;10.210;2023-05-02T08:07:02;101626.03;;;8.37;59.78
68793;BME280;55778;54.346;10.210;2023-05-02T08:09:27;101630.59;;;8.24;61.30
68793;BME280;55778;54.346;10.210;2023-05-02T08:11:53;101629.81;;;7.84;61.45
68793;BME280;55778;54.346;10.210;2023-05-02T08:14:18;101642.19;;;7.75;62.11
68793;BME280;55778;54.346;10.210;2023-05-02T08:16:44;101637.09;;;8.21;61.14
68793;BME280;55778;54.346;10.210;2023-05-02T08:19:09;101643.41;;;7.96;60.89
68793;BME280;55778;54.346;10.210;2023-05-02T08:21:35;101638.63;;;8.38;61.38
68793;BME280;55778;54.346;10.210;2023-05-02T08:24:00;101639.22;;;7.66;60.86
68793;BME280;55778;54.346;10.210;2023-05-02T08:26:26;101648.03;;;7.82;62.12
68793;BME280;55778;54.346;10.210;2023-05-02T08:28:53;101649.47;;;8.12;61.38
68793;BME280;55778;54.346;10.210;2023-05-02T08:31:19;101652.53;;;8.33;60.15
68793;BME280;55778;54.346;10.210;2023-05-02T08:33:44;101646.00;;;8.48;60.47
68793;BME280;55778;54.346;10.210;2023-05-02T08:36:15;101659.91;;;8.18;60.47
68793;BME280;55778;54.346;10.210;2023-05-02T08:38:44;101655.75;;;8.63;59.93
68793;BME280;55778;54.346;10.210;2023-05-02T08:41:13;101655.16;;;8.83;59.23
68793;BME280;55778;54.346;10.210;2023-05-02T08:43:39;101669.97;;;8.79;59.38
68793;BME280;55778;54.346;10.210;2023-05-02T08:46:06;101682.97;;;8.38;59.24
68793;BME280;55778;54.346;10.210;2023-05-02T08:48:36;101684.00;;;8.10;60.74
68793;BME280;55778;54.346;10.210;2023-05-02T08:51:02;101685.53;;;8.65;60.65
68793;BME280;55778;54.346;10.210;2023-05-02T08:53:31;101683.38;;;9.06;60.17
68793;BME280;55778;54.346;10.210;2023-05-02T08:55:56;101684.38;;;8.92;57.67
68793;BME280;55778;54.346;10.210;2023-05-02T08:58:24;101694.47;;;8.54;58.94
68793;BME280;55778;54.346;10.210;2023-05-02T09:00:50;101692.69;;;8.66;58.85
68793;BME280;55778;54.346;10.210;2023-05-02T09:05:52;101689.13;;;9.01;57.47
68793;BME280;55778;54.346;10.210;2023-05-02T09:08:24;101695.06;;;9.42;57.82
68793;BME280;55778;54.346;10.210;2023-05-02T09:10:50;101695.94;;;9.66;57.78
68793;BME280;55778;54.346;10.210;2023-05-02T09:13:32;101705.25;;;9.28;58.23
68793;BME280;55778;54.346;10.210;2023-05-02T09:16:09;101707.72;;;8.59;58.19
68793;BME280;55778;54.346;10.210;2023-05-02T09:18:48;101716.56;;;8.86;58.69
68793;BME280;55778;54.346;10.210;2023-05-02T09:21:19;101720.81;;;8.90;58.47
68793;BME280;55778;54.346;10.210;2023-05-02T09:23:55;101717.41;;;9.58;57.32
68793;BME280;55778;54.346;10.210;2023-05-02T09:28:54;101727.06;;;10.09;57.07
68793;BME280;55778;54.346;10.210;2023-05-02T09:31:28;101735.47;;;9.83;55.87
68793;BME280;55778;54.346;10.210;2023-05-02T09:34:14;101733.56;;;9.49;55.64
68793;BME280;55778;54.346;10.210;2023-05-02T09:36:42;101743.97;;;9.31;54.94
68793;BME280;55778;54.346;10.210;2023-05-02T09:39:16;101738.84;;;9.86;53.21
68793;BME280;55778;54.346;10.210;2023-05-02T09:41:46;101737.28;;;9.48;53.60
68793;BME280;55778;54.346;10.210;2023-05-02T09:44:16;101732.69;;;10.30;53.48
68793;BME280;55778;54.346;10.210;2023-05-02T09:46:53;101727.59;;;10.15;54.43
68793;BME280;55778;54.346;10.210;2023-05-02T09:52:13;101739.59;;;9.41;55.98
68793;BME280;55778;54.346;10.210;2023-05-02T09:54:39;101741.50;;;9.52;55.65
68793;BME280;55778;54.346;10.210;2023-05-02T09:57:05;101738.22;;;10.18;54.91
68793;BME280;55778;54.346;10.210;2023-05-02T09:59:31;101745.78;;;9.67;54.01
68793;BME280;55778;54.346;10.210;2023-05-02T10:02:04;101750.78;;;9.49;54.71
68793;BME280;55778;54.346;10.210;2023-05-02T10:04:33;101759.22;;;9.57;54.56
68793;BME280;55778;54.346;10.210;2023-05-02T10:06:59;101752.63;;;10.31;54.80
68793;BME280;55778;54.346;10.210;2023-05-02T10:09:26;101763.56;;;10.53;53.91
68793;BME280;55778;54.346;10.210;2023-05-02T10:11:55;101762.41;;;9.75;53.68
68793;BME280;55778;54.346;10.210;2023-05-02T10:14:23;101778.47;;;9.31;56.05
68793;BME280;55778;54.346;10.210;2023-05-02T10:17:11;101774.53;;;9.35;55.58
68793;BME280;55778;54.346;10.210;2023-05-02T10:22:18;101785.28;;;9.00;56.06
68793;BME280;55778;54.346;10.210;2023-05-02T10:24:44;101777.22;;;9.47;56.97
68793;BME280;55778;54.346;10.210;2023-05-02T10:27:11;101783.69;;;9.34;55.31
68793;BME280;55778;54.346;10.210;2023-05-02T10:29:38;101784.34;;;9.37;54.64
68793;BME280;55778;54.346;10.210;2023-05-02T10:32:04;101787.88;;;9.02;54.25
68793;BME280;55778;54.346;10.210;2023-05-02T10:34:31;101782.69;;;9.35;54.82
68793;BME280;55778;54.346;10.210;2023-05-02T10:36:58;101794.22;;;9.38;53.19
68793;BME280;55778;54.346;10.210;2023-05-02T10:39:30;101794.97;;;10.24;53.87
68793;BME280;55778;54.346;10.210;2023-05-02T10:41:57;101791.03;;;10.39;51.56
68793;BME280;55778;54.346;10.210;2023-05-02T10:44:33;101790.25;;;11.37;50.10
68793;BME280;55778;54.346;10.210;2023-05-02T10:46:59;101797.31;;;11.51;49.83
68793;BME280;55778;54.346;10.210;2023-05-02T10:49:25;101798.19;;;11.29;50.62
68793;BME280;55778;54.346;10.210;2023-05-02T10:51:51;101802.28;;;11.35;50.24
68793;BME280;55778;54.346;10.210;2023-05-02T10:54:23;101816.50;;;10.83;50.82
68793;BME280;55778;54.346;10.210;2023-05-02T10:57:05;101812.97;;;10.13;53.42
68793;BME280;55778;54.346;10.210;2023-05-02T10:59:41;101815.63;;;9.79;54.58
68793;BME280;55778;54.346;10.210;2023-05-02T11:07:24;101829.03;;;9.33;54.18
68793;BME280;55778;54.346;10.210;2023-05-02T11:09:50;101817.03;;;10.08;52.66
68793;BME280;55778;54.346;10.210;2023-05-02T11:12:44;101812.38;;;10.21;51.01
68793;BME280;55778;54.346;10.210;2023-05-02T11:20:24;101802.63;;;11.63;49.96
68793;BME280;55778;54.346;10.210;2023-05-02T11:22:50;101812.66;;;11.74;49.01
68793;BME280;55778;54.346;10.210;2023-05-02T11:25:34;101805.78;;;12.01;48.42
68793;BME280;55778;54.346;10.210;2023-05-02T11:28:01;101795.91;;;10.57;49.82
68793;BME280;55778;54.346;10.210;2023-05-02T11:30:41;101812.63;;;10.53;51.59
68793;BME280;55778;54.346;10.210;2023-05-02T11:35:34;101807.69;;;10.69;49.10
68793;BME280;55778;54.346;10.210;2023-05-02T11:38:02;101808.72;;;11.01;51.69
68793;BME280;55778;54.346;10.210;2023-05-02T11:40:31;101814.41;;;10.65;51.19
68793;BME280;55778;54.346;10.210;2023-05-02T11:43:00;101810.94;;;10.74;51.44
68793;BME280;55778;54.346;10.210;2023-05-02T11:45:35;101821.03;;;10.50;51.97
68793;BME280;55778;54.346;10.210;2023-05-02T11:48:04;101821.78;;;9.93;51.22
68793;BME280;55778;54.346;10.210;2023-05-02T11:50:31;101820.16;;;10.38;52.01
68793;BME280;55778;54.346;10.210;2023-05-02T11:52:57;101826.97;;;11.22;49.55
68793;BME280;55778;54.346;10.210;2023-05-02T11:55:22;101833.47;;;11.97;49.95
68793;BME280;55778;54.346;10.210;2023-05-02T11:57:48;101834.25;;;11.55;50.07
68793;BME280;55778;54.346;10.210;2023-05-02T12:00:14;101843.06;;;11.14;50.06
68793;BME280;55778;54.346;10.210;2023-05-02T12:02:42;101836.47;;;10.84;50.61
68793;BME280;55778;54.346;10.210;2023-05-02T12:05:09;101842.69;;;10.86;49.69
68793;BME280;55778;54.346;10.210;2023-05-02T12:10:01;101854.13;;;11.68;48.90
68793;BME280;55778;54.346;10.210;2023-05-02T12:12:26;101855.53;;;12.05;46.33
68793;BME280;55778;54.346;10.210;2023-05-02T12:14:52;101856.59;;;11.60;46.66
68793;BME280;55778;54.346;10.210;2023-05-02T12:17:18;101851.66;;;11.54;47.25
68793;BME280;55778;54.346;10.210;2023-05-02T12:19:44;101858.81;;;11.88;47.32
68793;BME280;55778;54.346;10.210;2023-05-02T12:22:10;101861.81;;;11.08;48.26
68793;BME280;55778;54.346;10.210;2023-05-02T12:24:37;101863.59;;;10.74;50.11
68793;BME280;55778;54.346;10.210;2023-05-02T12:27:13;101881.59;;;10.88;51.43
68793;BME280;55778;54.346;10.210;2023-05-02T12:29:43;101882.97;;;10.48;51.17
68793;BME280;55778;54.346;10.210;2023-05-02T12:32:13;101883.91;;;10.70;51.80
68793;BME280;55778;54.346;10.210;2023-05-02T12:34:39;101880.91;;;11.08;51.01
68793;BME280;55778;54.346;10.210;2023-05-02T12:37:06;101870.75;;;11.43;48.36
68793;BME280;55778;54.346;10.210;2023-05-02T12:39:40;101869.94;;;12.91;48.60
68793;BME280;55778;54.346;10.210;2023-05-02T12:42:12;101879.53;;;12.01;46.73
68793;BME280;55778;54.346;10.210;2023-05-02T12:44:39;101886.72;;;11.03;49.29
68793;BME280;55778;54.346;10.210;2023-05-02T12:47:05;101885.91;;;10.79;49.26
68793;BME280;55778;54.346;10.210;2023-05-02T12:49:31;101896.50;;;11.06;50.25
68793;BME280;55778;54.346;10.210;2023-05-02T12:51:56;101898.13;;;10.52;50.42
68793;BME280;55778;54.346;10.210;2023-05-02T12:54:22;101891.34;;;11.14;50.74
68793;BME280;55778;54.346;10.210;2023-05-02T12:56:48;101883.91;;;11.82;49.80
68793;BME280;55778;54.346;10.210;2023-05-02T12:59:30;101901.91;;;11.73;47.33
68793;BME280;55778;54.346;10.210;2023-05-02T13:01:56;101897.50;;;11.05;49.98
68793;BME280;55778;54.346;10.210;2023-05-02T13:04:42;101896.34;;;10.85;52.05
68793;BME280;55778;54.346;10.210;2023-05-02T13:07:07;101897.53;;;10.59;52.21
68793;BME280;55778;54.346;10.210;2023-05-02T13:09:33;101897.84;;;10.78;52.16
68793;BME280;55778;54.346;10.210;2023-05-02T13:11:58;101893.69;;;10.73;51.94
68793;BME280;55778;54.346;10.210;2023-05-02T13:14:24;101893.09;;;11.26;52.19
68793;BME280;55778;54.346;10.210;2023-05-02T13:16:50;101904.13;;;11.35;51.79
68793;BME280;55778;54.346;10.210;2023-05-02T13:19:19;101894.78;;;11.16;50.93
68793;BME280;55778;54.346;10.210;2023-05-02T13:21:45;101906.78;;;10.91;50.89
68793;BME280;55778;54.346;10.210;2023-05-02T13:24:10;101894.81;;;10.59;49.82
68793;BME280;55778;54.346;10.210;2023-05-02T13:26:35;101903.94;;;10.58;50.93
68793;BME280;55778;54.346;10.210;2023-05-02T13:29:01;101904.50;;;10.74;50.28